Hollywood, FL (33023)

12:13 PM EST on February 08, 2016 (GMT -0500)
ISLAND DR. AREA | | Change Station
CLOSE
Current Station
Personal Weather Station
Location: MIRAMAR, FL
Elevation: 7 ft
Nearby Weather Stations

Elev 7 ft 25.99 °N, 80.24 °W | Updated 17 seconds ago

Clear
Clear
65.1 °F
Feels Like 65.1 °F
N
8.0
Wind Variable Wind from WNW
Gusts 8.0 mph

Today
High -- | Low -- °F
--% Chance of Precip.
Yesterday
High -- | Low -- °F
Precip. -- in
Pressure 30.11 in
Visibility 10.0 miles
Clouds Mostly Cloudy 30000 ft
Dew Point 46 °F
Humidity 50%
Rainfall 0.00 in
Snow Depth Not available.
7:01 AM 6:09 PM
New Moon, 0% visible
METAR KFLL 081653Z 33010KT 10SM BKN300 17/04 A3011 RMK AO2 SLP194 T01720039
Pressure 30.11 in
Visibility 10.0 miles
Clouds Mostly Cloudy 30000 ft
Dew Point 46 °F
Humidity 50%
Rainfall 0.00 in
Snow Depth Not available.
7:01 AM 6:09 PM
New Moon, 0% visible
METAR KFLL 081653Z 33010KT 10SM BKN300 17/04 A3011 RMK AO2 SLP194 T01720039

10-Day Weather Forecast

Almanac

Astronomy

Feb. 08, 2016 Rise Set
Actual Time
Civil Twilight
Nautical Twilight
Astronomical Twilight
Moon
Length of Visible Light
Length of Day
Tomorrow will be .
, % of the Moon is Illuminated

Today's Extremes

State Highs State Lows

Community

WunderPhotos

Upload Photos

1,891,471 photos uploaded!

WunderBlog® & News

Nearby

Air Quality

  Air Quality AQ Index Pollutant
Not available.

Snow Depth

Station Depth Elevation

Earthquake Activity

City Distance Mag. Time & Date
Minimum magnitude displayed is 2.5.

Coastal Water Temperatures

Place Temperature

Stations

Nearby Weather Stations

Station Location Temp. Windchill Dew Point Humidity Wind Precip. Elev Updated Type
                   

Watches & Warnings

There are currently no watches in effect.